Terminal Aerodrome Forecast
Issued by NWS

Home | Current Version | Previous Version | Text Only | Print | Product List | Glossary On
Versions: 1 2 3 4 5 6 7 8 9 10 11 12 13 14 15 16 17 18 19 20 21
907
FTUS41 KPHI 240534
TAFPNE
TAF
KPNE 240534Z 2406/2506 VRB03KT P6SM SKC
     FM241600 23006KT P6SM FEW050
     FM250100 VRB03KT P6SM SCT250=

USA.gov is the U.S. government's official web portal to all federal, state and local government web resources and services.